Cow Head, Canada
Current Conditions -  °F | °C
As of 11:00 AM on Monday 22 Dec 2014 (Local Time) from CWDH Reporting Station
Overcast Overcast  
Wind Chill: 27°   Ceiling: 1400
Heat Index: 27°   Visibility: 9mi
Dew Point: 21°   Wind: 0mph
Humidity: 78%   Direction: NA
Pressure: 30.42"   Gusts: NA
Location:  49.92°N, 57.9°W
Report Text: CWDH 221400Z AUTO 00000KT 9SM OVC014 M03/M06 A3042 RMK SLP304 T10261059 WSI/SWOB
Loading
Personal Weather Stations






























Interactive Weather Map New forecast layout! Learn more

10-Day Weather Forecast

Advertisements
Track Severe Weather on mobile